Time;durP1;ratioP1;P1;durP2;ratioP2;P2;SDS_P1;SDS_P2;PMS_P1;PMS_P2;Temp;Humidity;BMP_temperature;BMP_pressure;BME280_temperature;BME280_humidity;BME280_pressure;Samples;Min_cycle;Max_cycle;Signal;HPM_P1;HPM_P2
2022/04/11 00:01:32;;;;;;;6.50;4.17;;;;;;;2.96;100.00;99483.59;4823589;29;20205;-81
2022/04/11 00:04:01;;;;;;;5.57;3.80;;;;;;;3.03;100.00;99486.00;4860487;29;20258;-81
2022/04/11 00:06:34;;;;;;;5.43;3.70;;;;;;;2.98;100.00;99487.88;4830440;29;20200;-81
2022/04/11 00:09:06;;;;;;;4.97;3.97;;;;;;;2.84;100.00;99485.66;4870643;29;20258;-82
2022/04/11 00:11:35;;;;;;;4.70;3.77;;;;;;;2.97;100.00;99475.72;4899706;29;20198;-81
2022/04/11 00:14:05;;;;;;;6.23;4.17;;;;;;;2.95;100.00;99476.66;4897292;29;20203;-81
2022/04/11 00:16:41;;;;;;;5.13;3.80;;;;;;;3.18;100.00;99469.00;4898233;29;20375;-82
2022/04/11 00:19:12;;;;;;;4.77;3.80;;;;;;;2.91;100.00;99470.66;4883177;29;20214;-82
2022/04/11 00:21:46;;;;;;;4.80;3.97;;;;;;;3.06;100.00;99470.22;4871765;29;20208;-81
2022/04/11 00:24:21;;;;;;;5.00;4.50;;;;;;;3.00;100.00;99465.19;4865094;29;20223;-80
2022/04/11 00:26:55;;;;;;;8.13;4.53;;;;;;;2.92;100.00;99475.00;4879988;29;20199;-82
2022/04/11 00:29:23;;;;;;;5.50;3.93;;;;;;;2.71;100.00;99468.59;4862156;29;20302;-80
2022/04/11 00:31:54;;;;;;;4.07;3.67;;;;;;;2.63;100.00;99461.84;4857380;29;20284;-80
2022/04/11 00:34:25;;;;;;;5.00;3.80;;;;;;;2.67;100.00;99466.94;4773118;30;20211;-80
2022/04/11 00:36:54;;;;;;;4.77;3.70;;;;;;;2.54;100.00;99458.59;4783791;29;20214;-80
2022/04/11 00:39:26;;;;;;;5.20;3.97;;;;;;;2.52;100.00;99464.75;4808537;29;20208;-80
2022/04/11 00:41:55;;;;;;;5.43;3.60;;;;;;;2.58;100.00;99462.81;4825211;29;20285;-82
2022/04/11 00:44:24;;;;;;;4.30;3.90;;;;;;;2.58;100.00;99452.38;4828090;29;20233;-81
2022/04/11 00:46:55;;;;;;;4.83;3.80;;;;;;;2.43;100.00;99465.84;4817918;29;20225;-80
2022/04/11 00:49:24;;;;;;;4.57;3.70;;;;;;;2.39;100.00;99453.75;4808413;29;20210;-81
2022/04/11 00:51:53;;;;;;;5.77;3.83;;;;;;;2.45;100.00;99463.19;4807116;29;20210;-81
2022/04/11 00:54:23;;;;;;;6.80;4.13;;;;;;;2.46;100.00;99457.06;4809235;29;20201;-81
2022/04/11 00:56:55;;;;;;;7.37;5.47;;;;;;;2.35;100.00;99459.13;4827100;29;20198;-81
2022/04/11 00:59:26;;;;;;;6.50;4.43;;;;;;;2.32;100.00;99459.16;4867941;29;20289;-80
2022/04/11 01:01:56;;;;;;;6.80;4.60;;;;;;;2.30;100.00;99464.44;4915689;29;20247;-80
2022/04/11 01:04:27;;;;;;;5.93;4.53;;;;;;;2.27;100.00;99464.53;4916140;29;20201;-81
2022/04/11 01:07:03;;;;;;;6.50;4.67;;;;;;;2.40;100.00;99457.22;4896383;29;20208;-80
2022/04/11 01:09:32;;;;;;;5.63;4.20;;;;;;;2.44;100.00;99462.34;4868697;29;20212;-81
2022/04/11 01:12:02;;;;;;;5.73;4.10;;;;;;;2.30;100.00;99456.59;4891715;29;20206;-81
2022/04/11 01:14:31;;;;;;;4.63;4.20;;;;;;;2.29;100.00;99462.72;4892945;29;20743;-80
2022/04/11 01:17:02;;;;;;;5.20;4.33;;;;;;;2.29;100.00;99465.34;4890221;29;20322;-80
2022/04/11 01:19:30;;;;;;;7.60;4.87;;;;;;;2.14;100.00;99465.75;4922907;29;20663;-80
2022/04/11 01:22:01;;;;;;;6.30;4.93;;;;;;;2.06;100.00;99465.06;4951483;29;20197;-80
2022/04/11 01:24:30;;;;;;;6.27;5.00;;;;;;;2.19;100.00;99472.56;4958015;28;20593;-80
2022/04/11 01:27:02;;;;;;;11.40;5.67;;;;;;;2.18;100.00;99462.16;4979393;28;20195;-80
2022/04/11 01:29:31;;;;;;;13.10;6.10;;;;;;;2.25;100.00;99461.97;4951539;28;20243;-80
2022/04/11 01:31:59;;;;;;;11.77;5.73;;;;;;;2.28;100.00;99466.25;4953829;28;20200;-80
2022/04/11 01:34:32;;;;;;;12.17;6.20;;;;;;;2.13;100.00;99470.13;4953502;28;20188;-80
2022/04/11 01:37:02;;;;;;;8.63;5.30;;;;;;;2.04;100.00;99475.56;4898027;29;20319;-80
2022/04/11 01:39:34;;;;;;;7.47;5.00;;;;;;;2.01;100.00;99473.84;4880376;29;20195;-79
2022/04/11 01:42:04;;;;;;;8.90;4.70;;;;;;;2.02;100.00;99469.50;4881122;29;20675;-81
2022/04/11 01:44:32;;;;;;;5.30;4.60;;;;;;;1.95;100.00;99473.16;4827926;29;20305;-79
2022/04/11 01:47:08;;;;;;;7.93;4.63;;;;;;;2.06;100.00;99468.53;4832732;29;20195;-80
2022/04/11 01:49:37;;;;;;;4.93;4.40;;;;;;;2.04;100.00;99477.31;4863598;29;20208;-80
2022/04/11 01:52:08;;;;;;;6.57;4.57;;;;;;;2.14;100.00;99471.81;4862920;29;20204;-80
2022/04/11 01:54:37;;;;;;;6.87;4.90;;;;;;;2.21;100.00;99465.53;4841797;29;20313;-80
2022/04/11 01:57:15;;;;;;;8.03;4.87;;;;;;;2.17;100.00;99461.28;4848950;29;20210;-80
2022/04/11 01:59:43;;;;;;;5.87;4.67;;;;;;;2.26;100.00;99452.38;4861345;29;20208;-81
2022/04/11 02:02:13;;;;;;;7.73;5.33;;;;;;;2.24;100.00;99456.78;4911638;28;20223;-79
2022/04/11 02:04:41;;;;;;;7.27;4.77;;;;;;;2.29;100.00;99454.88;4972717;28;20282;-80
2022/04/11 02:07:12;;;;;;;7.73;5.20;;;;;;;2.17;100.00;99455.22;4971768;28;20203;-79
2022/04/11 02:09:40;;;;;;;4.90;4.40;;;;;;;2.19;100.00;99451.66;4968498;28;20351;-79
2022/04/11 02:12:10;;;;;;;8.77;4.73;;;;;;;2.05;100.00;99455.53;4971431;28;20273;-80
2022/04/11 02:14:38;;;;;;;5.17;4.17;;;;;;;2.21;100.00;99452.47;4971044;28;20279;-80
2022/04/11 02:17:09;;;;;;;5.07;4.07;;;;;;;2.13;100.00;99445.75;4974480;28;20343;-80
2022/04/11 02:19:37;;;;;;;6.53;4.43;;;;;;;2.09;100.00;99442.31;4987375;28;20698;-80
2022/04/11 02:22:07;;;;;;;4.80;4.20;;;;;;;2.14;100.00;99439.63;4973823;28;20362;-82
2022/04/11 02:24:39;;;;;;;5.03;4.53;;;;;;;2.06;100.00;99436.34;4974042;28;20683;-80
2022/04/11 02:27:08;;;;;;;5.87;4.20;;;;;;;2.23;100.00;99435.00;4975488;28;20310;-80
2022/04/11 02:29:37;;;;;;;7.60;4.37;;;;;;;2.22;100.00;99433.31;4973824;28;20223;-80
2022/04/11 02:32:07;;;;;;;10.20;6.53;;;;;;;2.35;100.00;99439.06;4974371;28;20210;-80
2022/04/11 02:34:36;;;;;;;26.27;12.90;;;;;;;2.42;100.00;99437.16;4976216;28;20294;-80
2022/04/11 02:37:05;;;;;;;15.00;7.73;;;;;;;2.51;100.00;99429.91;4975898;28;20199;-80
2022/04/11 02:39:33;;;;;;;9.60;5.80;;;;;;;2.55;100.00;99426.31;4969528;28;20215;-80
2022/04/11 02:42:04;;;;;;;12.80;6.70;;;;;;;2.57;100.00;99421.03;4977129;28;20247;-80
2022/04/11 02:44:32;;;;;;;6.30;4.33;;;;;;;2.61;100.00;99427.91;4979539;28;20208;-80
2022/04/11 02:47:01;;;;;;;6.00;4.70;;;;;;;2.71;100.00;99423.28;4974712;28;20215;-79
2022/04/11 02:49:33;;;;;;;6.47;4.10;;;;;;;2.71;100.00;99412.81;4978817;28;20318;-80
2022/04/11 02:52:02;;;;;;;4.73;3.80;;;;;;;2.52;100.00;99428.16;4972704;28;20243;-82
2022/04/11 02:54:30;;;;;;;5.07;3.43;;;;;;;2.50;100.00;99415.09;4975677;28;20200;-81
2022/04/11 02:57:00;;;;;;;6.07;3.90;;;;;;;2.45;100.00;99417.00;4974738;28;20282;-81
2022/04/11 02:59:32;;;;;;;4.93;3.80;;;;;;;2.37;100.00;99413.72;4974818;28;20207;-79
2022/04/11 03:02:01;;;;;;;4.50;3.73;;;;;;;2.38;100.00;99417.19;4974821;28;20214;-80
2022/04/11 03:04:38;;;;;;;4.73;3.80;;;;;;;2.39;100.00;99417.16;4974080;28;20196;-80
2022/04/11 03:07:08;;;;;;;5.93;3.80;;;;;;;2.43;100.00;99417.97;4973544;28;20215;-80
2022/04/11 03:09:36;;;;;;;4.13;3.73;;;;;;;2.49;100.00;99412.53;4975712;28;20670;-80
2022/04/11 03:12:06;;;;;;;4.57;3.67;;;;;;;2.34;100.00;99402.50;4941380;28;20272;-81
2022/04/11 03:14:36;;;;;;;6.03;4.20;;;;;;;2.34;100.00;99405.13;4973232;28;20192;-81
2022/04/11 03:17:05;;;;;;;5.53;4.30;;;;;;;2.33;100.00;99401.66;4971652;28;20283;-79
2022/04/11 03:19:34;;;;;;;6.10;4.20;;;;;;;2.35;100.00;99399.00;4972367;28;20218;-80
2022/04/11 03:22:02;;;;;;;5.10;4.33;;;;;;;2.25;100.00;99404.47;4950051;28;20203;-79
2022/04/11 03:24:33;;;;;;;6.27;4.30;;;;;;;2.28;100.00;99398.28;4969992;28;20207;-80
2022/04/11 03:27:02;;;;;;;5.73;4.47;;;;;;;2.23;100.00;99395.81;4969036;28;20235;-82
2022/04/11 03:29:32;;;;;;;4.83;4.20;;;;;;;2.28;100.00;99398.28;4973329;28;20231;-82
2022/04/11 03:32:02;;;;;;;6.20;4.87;;;;;;;2.17;100.00;99398.59;5011812;28;20205;-82
2022/04/11 03:34:34;;;;;;;6.80;4.80;;;;;;;2.17;100.00;99395.13;5005589;28;20210;-83
2022/04/11 03:37:03;;;;;;;5.10;4.60;;;;;;;2.23;100.00;99392.34;5005793;28;20195;-80
2022/04/11 03:39:32;;;;;;;6.83;4.70;;;;;;;2.35;100.00;99393.78;5012434;28;20197;-81
2022/04/11 03:42:06;;;;;;;9.63;5.20;;;;;;;2.33;100.00;99385.97;5002803;28;20194;-80
2022/04/11 03:44:35;;;;;;;4.60;4.20;;;;;;;2.39;100.00;99388.41;4961137;28;20262;-82
2022/04/11 03:47:09;;;;;;;6.13;4.23;;;;;;;2.45;100.00;99390.88;4999513;28;20222;-82
2022/04/11 03:49:37;;;;;;;5.00;4.40;;;;;;;2.49;100.00;99399.47;4999185;28;20195;-82
2022/04/11 03:52:07;;;;;;;6.97;4.33;;;;;;;2.56;100.00;99382.72;4953477;28;20199;-79
2022/04/11 03:54:37;;;;;;;6.13;4.70;;;;;;;2.54;100.00;99387.16;4951280;28;20207;-80
2022/04/11 03:57:08;;;;;;;7.83;5.07;;;;;;;2.49;100.00;99389.00;4914534;29;20284;-81
2022/04/11 03:59:38;;;;;;;5.73;4.13;;;;;;;2.50;100.00;99383.72;4848161;29;20321;-82
2022/04/11 04:02:08;;;;;;;6.53;4.70;;;;;;;2.58;100.00;99387.00;4891466;29;20203;-82
2022/04/11 04:04:38;;;;;;;7.87;4.83;;;;;;;2.34;100.00;99387.69;4896600;29;20270;-81
2022/04/11 04:07:07;;;;;;;5.73;4.20;;;;;;;2.39;100.00;99384.94;4858099;29;20243;-82
2022/04/11 04:09:40;;;;;;;6.17;4.57;;;;;;;2.37;100.00;99384.97;4853231;29;20714;-82
2022/04/11 04:12:10;;;;;;;7.97;4.93;;;;;;;2.39;100.00;99377.94;4890406;29;20670;-82
2022/04/11 04:14:40;;;;;;;5.90;4.53;;;;;;;2.40;100.00;99381.41;4861417;29;20203;-82
2022/04/11 04:17:15;;;;;;;7.67;4.73;;;;;;;2.40;100.00;99387.50;4879355;29;20214;-82
2022/04/11 04:19:44;;;;;;;6.43;4.60;;;;;;;2.35;100.00;99388.53;4875171;29;20207;-83
2022/04/11 04:22:18;;;;;;;7.30;4.70;;;;;;;2.29;100.00;99390.41;4877009;29;20210;-82
2022/04/11 04:24:49;;;;;;;7.97;4.63;;;;;;;2.32;100.00;99394.72;4845869;29;20204;-82
2022/04/11 04:27:21;;;;;;;6.77;4.73;;;;;;;2.32;100.00;99399.94;4858345;29;20224;-83
2022/04/11 04:29:51;;;;;;;8.03;5.20;;;;;;;2.27;100.00;99397.44;4857935;29;20235;-82
2022/04/11 04:32:22;;;;;;;7.20;5.07;;;;;;;2.24;100.00;99402.75;4862947;29;20206;-82
2022/04/11 04:34:51;;;;;;;6.30;4.90;;;;;;;2.28;100.00;99408.75;4896614;29;20203;-82
2022/04/11 04:37:21;;;;;;;6.97;4.77;;;;;;;2.27;100.00;99414.88;4896072;29;20228;-82
2022/04/11 04:39:53;;;;;;;5.97;4.63;;;;;;;2.28;100.00;99408.75;4895287;29;20247;-82
2022/04/11 04:42:22;;;;;;;6.40;4.67;;;;;;;2.21;100.00;99418.50;4914504;28;20200;-82
2022/04/11 04:44:54;;;;;;;6.60;4.60;;;;;;;2.23;100.00;99421.09;4977931;28;20228;-82
2022/04/11 04:47:26;;;;;;;6.13;4.10;;;;;;;2.23;100.00;99410.63;4978151;28;20299;-82
2022/04/11 04:49:55;;;;;;;5.60;4.70;;;;;;;2.25;100.00;99419.28;4973965;28;20200;-82
2022/04/11 04:52:24;;;;;;;7.27;5.00;;;;;;;2.21;100.00;99415.03;4970098;28;20195;-82
2022/04/11 04:54:52;;;;;;;8.10;5.00;;;;;;;2.03;100.00;99419.00;4975396;28;20666;-82
2022/04/11 04:57:21;;;;;;;5.07;4.50;;;;;;;2.06;100.00;99421.53;4973085;28;20219;-82
2022/04/11 04:59:49;;;;;;;4.97;4.23;;;;;;;2.03;100.00;99416.38;4972794;28;20223;-82
2022/04/11 05:02:19;;;;;;;6.20;4.50;;;;;;;2.00;100.00;99425.13;4973841;28;20192;-82
2022/04/11 05:04:50;;;;;;;6.57;4.83;;;;;;;2.00;100.00;99419.03;4965833;28;20195;-83
2022/04/11 05:07:20;;;;;;;7.90;5.43;;;;;;;2.07;100.00;99414.53;4969896;28;20215;-83
2022/04/11 05:09:50;;;;;;;6.80;4.50;;;;;;;2.13;100.00;99419.63;4937248;29;20216;-82
2022/04/11 05:12:18;;;;;;;7.50;4.43;;;;;;;2.24;100.00;99415.81;4933588;29;20201;-82
2022/04/11 05:14:48;;;;;;;5.00;4.37;;;;;;;2.36;100.00;99411.16;4933913;29;20197;-82
2022/04/11 05:17:19;;;;;;;7.90;4.43;;;;;;;2.26;100.00;99418.38;4936701;29;20197;-82
2022/04/11 05:19:50;;;;;;;7.23;4.40;;;;;;;2.27;100.00;99414.88;4932907;29;20209;-82
2022/04/11 05:22:19;;;;;;;6.13;4.77;;;;;;;2.23;100.00;99414.13;4930494;29;20292;-82
2022/04/11 05:24:47;;;;;;;5.77;4.30;;;;;;;2.35;100.00;99418.16;4928267;29;20200;-82
2022/04/11 05:27:16;;;;;;;8.03;4.40;;;;;;;2.35;100.00;99419.91;4948027;28;20242;-82
2022/04/11 05:29:44;;;;;;;9.87;4.77;;;;;;;2.32;100.00;99420.84;4987798;28;20231;-82
2022/04/11 05:32:13;;;;;;;5.47;4.10;;;;;;;2.36;100.00;99429.47;4991369;28;20214;-82
2022/04/11 05:34:42;;;;;;;6.80;4.57;;;;;;;2.42;100.00;99427.56;4946785;29;20212;-83
2022/04/11 05:37:12;;;;;;;6.40;4.10;;;;;;;2.40;100.00;99431.09;4947061;29;20200;-82
2022/04/11 05:39:42;;;;;;;5.30;3.73;;;;;;;2.30;100.00;99431.31;4922967;28;20284;-83
2022/04/11 05:42:10;;;;;;;6.53;4.33;;;;;;;2.21;100.00;99423.72;4953105;28;20205;-82
2022/04/11 05:44:41;;;;;;;12.17;5.33;;;;;;;2.08;100.00;99426.69;4952306;28;20632;-82
2022/04/11 05:47:11;;;;;;;8.37;4.33;;;;;;;1.99;100.00;99427.78;4912305;29;20221;-82
2022/04/11 05:49:40;;;;;;;8.47;4.40;;;;;;;2.12;100.00;99428.31;4913988;29;20202;-82
2022/04/11 05:52:21;;;;;;;9.57;4.90;;;;;;;2.26;100.00;99431.47;4912550;29;20205;-82
2022/04/11 05:54:50;;;;;;;10.73;6.37;;;;;;;2.45;100.00;99419.63;4887999;29;20280;-81
2022/04/11 05:57:19;;;;;;;15.43;8.30;;;;;;;2.47;100.00;99423.03;4913914;29;20276;-81
2022/04/11 05:59:47;;;;;;;16.10;9.07;;;;;;;2.72;100.00;99419.78;4924521;29;20193;-83
2022/04/11 06:02:21;;;;;;;15.70;7.83;;;;;;;2.71;100.00;99416.28;4930443;29;20257;-80
2022/04/11 06:04:54;;;;;;;8.07;5.37;;;;;;;2.78;100.00;99427.41;4935103;29;20282;-80
2022/04/11 06:07:26;;;;;;;6.57;4.77;;;;;;;2.77;100.00;99418.72;4930983;29;20252;-80
2022/04/11 06:09:56;;;;;;;7.63;5.80;;;;;;;2.93;100.00;99418.28;4972964;28;20188;-80
2022/04/11 06:12:25;;;;;;;11.70;5.57;;;;;;;3.00;100.00;99412.84;4970604;28;20211;-80
2022/04/11 06:14:54;;;;;;;6.57;4.47;;;;;;;3.04;100.00;99416.22;4973021;28;20240;-80
2022/04/11 06:17:24;;;;;;;7.73;4.67;;;;;;;2.94;100.00;99423.47;4968409;28;20199;-82
2022/04/11 06:19:53;;;;;;;9.80;5.27;;;;;;;3.07;100.00;99414.34;4956942;28;20212;-83
2022/04/11 06:22:24;;;;;;;8.40;5.37;;;;;;;3.17;100.00;99417.56;4952653;28;20207;-82
2022/04/11 06:24:59;;;;;;;6.80;5.20;;;;;;;3.31;100.00;99422.41;4954538;28;20192;-83
2022/04/11 06:27:28;;;;;;;11.23;5.10;;;;;;;3.38;100.00;99418.69;4956540;28;20188;-82
2022/04/11 06:29:57;;;;;;;7.63;5.00;;;;;;;3.43;100.00;99427.25;4949002;29;20236;-83
2022/04/11 06:32:30;;;;;;;7.07;5.10;;;;;;;3.53;100.00;99428.69;4951812;28;20211;-83
2022/04/11 06:34:59;;;;;;;6.63;5.33;;;;;;;3.64;100.00;99413.47;4952998;28;20304;-82
2022/04/11 06:37:30;;;;;;;8.73;5.70;;;;;;;3.86;100.00;99415.41;4953503;28;20216;-82
2022/04/11 06:39:58;;;;;;;8.20;5.03;;;;;;;3.98;100.00;99421.13;4949824;28;20215;-83
2022/04/11 06:42:27;;;;;;;9.17;5.53;;;;;;;3.98;100.00;99421.13;4953411;28;20300;-83
2022/04/11 06:44:55;;;;;;;6.33;5.00;;;;;;;4.10;100.00;99426.84;4959674;28;20211;-83
2022/04/11 06:47:25;;;;;;;9.00;5.20;;;;;;;4.20;100.00;99418.63;4914227;29;20198;-84
2022/04/11 06:49:53;;;;;;;8.00;5.33;;;;;;;4.16;100.00;99419.66;4915173;29;20209;-84
2022/04/11 06:52:22;;;;;;;7.00;5.00;;;;;;;4.35;100.00;99416.41;4905552;29;20684;-84
2022/04/11 06:54:52;;;;;;;11.67;5.83;;;;;;;4.52;100.00;99414.03;4908655;29;20210;-84
2022/04/11 06:57:20;;;;;;;7.30;5.47;;;;;;;4.65;100.00;99406.59;4911126;29;20212;-84
2022/04/11 06:59:50;;;;;;;5.53;4.50;;;;;;;4.90;100.00;99407.41;4910640;29;20301;-84
2022/04/11 07:02:21;;;;;;;5.57;4.33;;;;;;;5.02;100.00;99404.34;4872911;29;20207;-84
2022/04/11 07:04:53;;;;;;;6.17;4.63;;;;;;;5.26;100.00;99401.69;4889913;29;20205;-84
2022/04/11 07:07:21;;;;;;;7.07;5.03;;;;;;;5.31;100.00;99395.34;4936436;28;20204;-85
2022/04/11 07:09:57;;;;;;;7.27;4.20;;;;;;;5.67;100.00;99390.41;4948493;29;20224;-84
2022/04/11 07:12:32;;;;;;;6.73;4.47;;;;;;;5.72;100.00;99395.47;4948944;28;20287;-85
2022/04/11 07:15:02;;;;;;;6.30;4.63;;;;;;;5.78;100.00;99387.34;4948302;28;20244;-84
2022/04/11 07:17:31;;;;;;;5.30;3.93;;;;;;;5.98;100.00;99381.28;4948000;28;20640;-84
2022/04/11 07:20:01;;;;;;;7.00;4.40;;;;;;;6.07;100.00;99383.53;4946160;28;20211;-85
2022/04/11 07:22:29;;;;;;;5.63;4.20;;;;;;;6.02;100.00;99383.72;4959408;28;20203;-84
2022/04/11 07:25:01;;;;;;;8.57;4.00;;;;;;;6.15;100.00;99380.59;4914609;29;20206;-84
2022/04/11 07:27:31;;;;;;;8.20;5.13;;;;;;;6.37;100.00;99377.88;4933733;29;20315;-84
2022/04/11 07:30:00;;;;;;;6.60;4.80;;;;;;;6.52;100.00;99374.59;4946948;29;20228;-83
2022/04/11 07:32:31;;;;;;;6.00;4.53;;;;;;;6.64;100.00;99366.16;4948961;29;20324;-83
2022/04/11 07:35:00;;;;;;;6.97;4.70;;;;;;;6.73;100.00;99367.50;4948939;29;20208;-84
2022/04/11 07:37:32;;;;;;;7.87;4.13;;;;;;;6.90;100.00;99359.72;4944942;29;20208;-84
2022/04/11 07:40:03;;;;;;;7.43;4.20;;;;;;;7.07;100.00;99365.06;4947076;29;20200;-83
2022/04/11 07:42:32;;;;;;;7.40;4.17;;;;;;;7.29;100.00;99364.06;4952123;28;20670;-84
2022/04/11 07:45:00;;;;;;;5.03;3.30;;;;;;;7.26;100.00;99361.56;4966514;28;20198;-85
2022/04/11 07:47:29;;;;;;;6.40;3.63;;;;;;;7.33;100.00;99353.28;4966574;28;20213;-83
2022/04/11 07:49:58;;;;;;;5.87;3.33;;;;;;;7.51;100.00;99353.34;4969124;28;20212;-84
2022/04/11 07:52:26;;;;;;;7.87;3.30;;;;;;;7.61;100.00;99346.69;4949045;28;20199;-83
2022/04/11 07:54:57;;;;;;;8.23;3.50;;;;;;;7.77;100.00;99354.72;4969120;28;20204;-83
2022/04/11 07:57:32;;;;;;;4.57;3.10;;;;;;;7.86;100.00;99354.25;4894038;29;20210;-83
2022/04/11 08:00:22;;;;;;;7.27;3.30;;;;;;;7.79;100.00;99350.19;4894316;29;20203;-83
2022/04/11 08:02:54;;;;;;;4.87;3.17;;;;;;;8.04;100.00;99361.25;4896478;29;20217;-83
2022/04/11 08:05:23;;;;;;;5.53;3.60;;;;;;;8.12;100.00;99361.72;4895947;29;20299;-83
2022/04/11 08:07:54;;;;;;;5.47;3.50;;;;;;;7.98;100.00;99365.03;4889229;29;20206;-83
2022/04/11 08:10:22;;;;;;;4.60;3.40;;;;;;;7.99;100.00;99357.97;4895099;29;20812;-84
2022/04/11 08:12:54;;;;;;;6.00;3.20;;;;;;;8.08;100.00;99362.78;4892541;29;20231;-83
2022/04/11 08:15:24;;;;;;;7.13;3.70;;;;;;;8.08;100.00;99362.78;4878856;29;20203;-83
2022/04/11 08:17:54;;;;;;;6.33;3.63;;;;;;;8.32;100.00;99358.06;4877835;29;20206;-83
2022/04/11 08:20:24;;;;;;;6.33;3.30;;;;;;;8.36;100.00;99361.41;4879826;29;20199;-83
2022/04/11 08:22:53;;;;;;;5.70;3.20;;;;;;;8.35;100.00;99359.72;4882950;29;20382;-83
2022/04/11 08:25:22;;;;;;;4.90;3.27;;;;;;;8.46;100.00;99352.09;4900852;29;20207;-84
2022/04/11 08:27:51;;;;;;;5.70;3.33;;;;;;;8.58;100.00;99364.63;4901246;29;20207;-83
2022/04/11 08:30:22;;;;;;;3.90;3.20;;;;;;;8.60;100.00;99371.56;4900990;29;20241;-83
2022/04/11 08:32:55;;;;;;;6.23;3.50;;;;;;;8.63;100.00;99359.97;4909663;29;20200;-83
2022/04/11 08:35:27;;;;;;;6.30;3.63;;;;;;;8.59;100.00;99356.66;4938483;29;20201;-84
2022/04/11 08:37:59;;;;;;;5.60;3.43;;;;;;;8.69;100.00;99357.03;4935120;29;20256;-84
2022/04/11 08:40:34;;;;;;;7.80;3.70;;;;;;;8.55;100.00;99362.16;4940238;28;20196;-84
2022/04/11 08:43:03;;;;;;;6.07;3.60;;;;;;;8.63;100.00;99367.03;4932283;29;20363;-84
2022/04/11 08:45:37;;;;;;;5.33;3.73;;;;;;;8.58;100.00;99370.75;4895394;29;20825;-84
2022/04/11 08:48:08;;;;;;;5.07;3.80;;;;;;;8.81;100.00;99360.78;4889914;29;20654;-84
2022/04/11 08:50:38;;;;;;;5.67;3.40;;;;;;;8.87;100.00;99357.81;4893390;29;20274;-84
2022/04/11 08:53:07;;;;;;;6.13;3.40;;;;;;;9.14;100.00;99348.38;4888781;29;20210;-84
2022/04/11 08:55:37;;;;;;;6.40;3.30;;;;;;;9.37;100.00;99362.13;4889598;29;20207;-84
2022/04/11 08:58:06;;;;;;;4.87;3.20;;;;;;;9.40;100.00;99356.66;4890373;29;20202;-84
2022/04/11 09:00:38;;;;;;;4.47;3.10;;;;;;;9.56;100.00;99354.88;4913535;29;20269;-84
2022/04/11 09:03:08;;;;;;;4.23;2.80;;;;;;;9.66;100.00;99341.97;4937028;28;20208;-84
2022/04/11 09:05:44;;;;;;;4.73;2.90;;;;;;;9.82;100.00;99350.72;4952698;28;20211;-84
2022/04/11 09:08:13;;;;;;;7.30;3.60;;;;;;;10.10;100.00;99339.38;4949963;28;20214;-84
2022/04/11 09:10:43;;;;;;;6.27;2.80;;;;;;;10.23;100.00;99345.69;4949958;28;20279;-84
2022/04/11 09:13:11;;;;;;;5.93;3.17;;;;;;;10.22;100.00;99332.53;4953710;28;20192;-83
2022/04/11 09:15:45;;;;;;;6.07;3.40;;;;;;;9.94;100.00;99338.56;4952522;28;20204;-84
2022/04/11 09:18:16;;;;;;;5.07;3.40;;;;;;;10.03;100.00;99327.44;4914545;29;20367;-84
2022/04/11 09:20:50;;;;;;;7.87;5.60;;;;;;;10.37;100.00;99328.97;4900313;29;20198;-84
2022/04/11 09:23:21;;;;;;;4.47;2.90;;;;;;;10.58;100.00;99329.47;4912809;29;20249;-84
2022/04/11 09:25:51;;;;;;;4.50;3.30;;;;;;;10.95;96.82;99327.19;4913912;29;20230;-83
2022/04/11 09:28:21;;;;;;;4.10;2.80;;;;;;;10.45;100.00;99320.56;4900196;29;20209;-84
2022/04/11 09:30:55;;;;;;;4.90;3.00;;;;;;;10.65;97.96;99320.19;4913505;29;20224;-84
2022/04/11 09:33:26;;;;;;;5.73;2.77;;;;;;;10.76;93.44;99315.06;4921770;29;20207;-84
2022/04/11 09:35:54;;;;;;;4.37;2.93;;;;;;;11.19;92.42;99317.66;4945649;28;20642;-83
2022/04/11 09:38:29;;;;;;;6.43;3.43;;;;;;;11.54;86.97;99320.69;4992788;28;20229;-84
2022/04/11 09:40:57;;;;;;;5.60;2.60;;;;;;;11.81;83.78;99320.72;4993348;28;20197;-81
2022/04/11 09:43:28;;;;;;;5.37;2.77;;;;;;;11.81;82.04;99314.56;4994111;28;20194;-81
2022/04/11 09:46:00;;;;;;;6.93;2.93;;;;;;;11.94;84.34;99307.47;4993820;28;20214;-80
2022/04/11 09:48:30;;;;;;;4.93;3.03;;;;;;;11.93;82.83;99303.13;4995054;28;20213;-80
2022/04/11 09:51:00;;;;;;;3.70;2.57;;;;;;;11.80;81.89;99299.59;4993892;28;20245;-80
2022/04/11 09:53:34;;;;;;;4.50;2.67;;;;;;;11.98;77.85;99303.66;4995261;28;20211;-80
2022/04/11 09:56:05;;;;;;;4.67;3.00;;;;;;;11.95;76.16;99296.75;4993494;28;20210;-81
2022/04/11 09:58:35;;;;;;;5.83;2.90;;;;;;;11.88;74.23;99291.97;4991673;28;20207;-83
2022/04/11 10:01:10;;;;;;;4.73;3.07;;;;;;;12.00;75.52;99289.34;4974420;28;20215;-83
2022/04/11 10:03:41;;;;;;;4.57;2.80;;;;;;;12.40;74.88;99297.22;4978001;28;20200;-84
2022/04/11 10:06:13;;;;;;;4.57;2.70;;;;;;;12.76;71.23;99295.63;4970786;28;20204;-84
2022/04/11 10:08:44;;;;;;;4.87;3.00;;;;;;;13.05;68.33;99290.88;4972060;28;20207;-84
2022/04/11 10:11:19;;;;;;;4.93;2.70;;;;;;;13.06;67.73;99279.28;4967252;28;20274;-84
2022/04/11 10:13:49;;;;;;;4.97;3.00;;;;;;;12.44;70.01;99281.91;4970409;28;20204;-83
2022/04/11 10:16:22;;;;;;;4.90;2.60;;;;;;;12.89;68.93;99277.81;4970673;28;20286;-84
2022/04/11 10:18:52;;;;;;;4.63;2.53;;;;;;;13.20;68.78;99270.31;4977795;28;20281;-84
2022/04/11 10:21:24;;;;;;;4.07;2.90;;;;;;;13.55;69.15;99259.75;4991181;28;20309;-84
2022/04/11 10:24:06;;;;;;;5.00;2.97;;;;;;;14.06;64.83;99265.59;4951577;28;20715;-84
2022/04/11 10:26:44;;;;;;;5.23;2.60;;;;;;;14.32;61.83;99259.09;4950278;28;20275;-84
2022/04/11 10:29:33;;;;;;;5.83;2.57;;;;;;;14.41;58.91;99249.56;4950771;28;20254;-83
2022/04/11 10:32:12;;;;;;;5.40;2.40;;;;;;;14.65;52.44;99253.94;4947737;28;20193;-82
2022/04/11 10:34:56;;;;;;;3.57;2.33;;;;;;;14.13;56.39;99250.00;4954288;28;20200;-83
2022/04/11 10:37:29;;;;;;;4.37;2.40;;;;;;;14.40;56.49;99255.84;4950585;28;20284;-83
2022/04/11 10:40:29;;;;;;;4.10;2.20;;;;;;;14.08;59.63;99252.16;4950429;28;20208;-83
2022/04/11 10:43:18;;;;;;;3.30;2.13;;;;;;;14.19;61.75;99250.38;4969158;28;20195;-83
2022/04/11 10:45:57;;;;;;;6.23;2.70;;;;;;;14.30;61.69;99249.53;4994316;28;20191;-83
2022/04/11 10:49:05;;;;;;;3.80;2.37;;;;;;;13.26;61.38;99249.44;4988359;28;20653;-83
2022/04/11 10:51:37;;;;;;;3.40;2.20;;;;;;;13.69;57.90;99246.22;4966087;28;20335;-84
2022/04/11 10:54:21;;;;;;;5.60;2.40;;;;;;;14.14;55.58;99235.72;4969798;28;20291;-84
2022/04/11 10:57:11;;;;;;;4.20;2.30;;;;;;;14.75;53.96;99233.56;4972452;28;20238;-84
2022/04/11 11:00:11;;;;;;;4.20;2.10;;;;;;;14.75;54.93;99222.91;4919214;28;20201;-83
2022/04/11 11:03:04;;;;;;;2.67;1.90;;;;;;;15.07;53.15;99231.00;4914287;29;20295;-84
2022/04/11 11:05:38;;;;;;;3.73;2.10;;;;;;;15.41;51.26;99224.56;4911855;29;20233;-84
2022/04/11 11:08:33;;;;;;;3.93;2.37;;;;;;;15.21;52.88;99229.84;4895421;29;20286;-84
2022/04/11 11:11:20;;;;;;;3.87;2.10;;;;;;;15.96;50.97;99216.44;4931858;29;20248;-84
2022/04/11 11:13:51;;;;;;;3.50;2.30;;;;;;;16.21;50.38;99208.03;4917275;29;20197;-84
2022/04/11 11:16:58;;;;;;;4.90;2.17;;;;;;;15.56;50.59;99200.25;4911678;29;20206;-84
2022/04/11 11:19:27;;;;;;;4.40;2.10;;;;;;;16.15;48.35;99197.84;4914805;29;20194;-84
2022/04/11 11:22:17;;;;;;;4.33;2.10;;;;;;;15.99;45.40;99182.28;4913506;29;20202;-84
2022/04/11 11:25:19;;;;;;;3.87;1.80;;;;;;;16.05;45.78;99180.94;4916230;29;20209;-84
2022/04/11 11:27:49;;;;;;;2.73;2.07;;;;;;;16.50;47.70;99169.84;4910428;29;20229;-84
2022/04/11 11:30:18;;;;;;;3.00;2.17;;;;;;;16.05;47.88;99164.91;4910721;29;20249;-84
2022/04/11 11:32:46;;;;;;;1.97;1.73;;;;;;;16.19;46.22;99172.56;4929845;29;20308;-83
2022/04/11 11:35:14;;;;;;;5.30;2.33;;;;;;;16.32;46.99;99175.03;4928356;29;20208;-84
2022/04/11 11:37:47;;;;;;;3.83;2.17;;;;;;;16.17;47.11;99166.50;4935662;28;20648;-84
2022/04/11 11:40:20;;;;;;;3.50;1.73;;;;;;;16.90;45.29;99167.22;4948815;28;20201;-84
2022/04/11 11:42:50;;;;;;;3.50;1.97;;;;;;;16.84;44.68;99151.69;4952651;28;20285;-84
2022/04/11 11:45:27;;;;;;;4.93;2.00;;;;;;;16.55;45.57;99157.78;4914437;28;20210;-85
2022/04/11 11:47:57;;;;;;;4.07;1.97;;;;;;;16.69;45.52;99161.94;4991280;28;20197;-84
2022/04/11 11:50:26;;;;;;;4.60;2.10;;;;;;;16.42;45.65;99161.69;4997351;28;20230;-82
2022/04/11 11:52:59;;;;;;;2.10;1.90;;;;;;;15.97;46.03;99164.72;4996925;28;20205;-82